sensor_id;sensor_type;location;lat;lon;timestamp;temperature;humidity
57058;DHT22;74999;52.848;6.748;2024-02-23T00:02:24;7.00;99.90
57058;DHT22;74999;52.848;6.748;2024-02-23T00:04:50;6.50;99.90
57058;DHT22;74999;52.848;6.748;2024-02-23T00:07:16;6.40;99.90
57058;DHT22;74999;52.848;6.748;2024-02-23T00:09:41;6.40;99.90
57058;DHT22;74999;52.848;6.748;2024-02-23T00:12:07;6.40;99.90
57058;DHT22;74999;52.848;6.748;2024-02-23T00:14:34;6.40;99.90
57058;DHT22;74999;52.848;6.748;2024-02-23T00:17:04;6.30;99.90
57058;DHT22;74999;52.848;6.748;2024-02-23T00:19:31;6.30;99.90
57058;DHT22;74999;52.848;6.748;2024-02-23T00:21:57;6.20;99.90
57058;DHT22;74999;52.848;6.748;2024-02-23T00:24:25;6.30;99.90
57058;DHT22;74999;52.848;6.748;2024-02-23T00:26:51;6.30;99.90
57058;DHT22;74999;52.848;6.748;2024-02-23T00:29:17;6.20;99.90
57058;DHT22;74999;52.848;6.748;2024-02-23T00:31:43;6.10;99.90
57058;DHT22;74999;52.848;6.748;2024-02-23T00:34:10;6.20;99.90
57058;DHT22;74999;52.848;6.748;2024-02-23T00:36:39;6.40;99.90
57058;DHT22;74999;52.848;6.748;2024-02-23T00:39:06;6.50;99.90
57058;DHT22;74999;52.848;6.748;2024-02-23T00:41:33;6.00;99.90
57058;DHT22;74999;52.848;6.748;2024-02-23T00:43:59;6.00;99.90
57058;DHT22;74999;52.848;6.748;2024-02-23T00:46:24;6.00;99.90
57058;DHT22;74999;52.848;6.748;2024-02-23T00:48:50;5.90;99.90
57058;DHT22;74999;52.848;6.748;2024-02-23T00:51:16;5.90;99.90
57058;DHT22;74999;52.848;6.748;2024-02-23T00:53:42;5.70;99.90
57058;DHT22;74999;52.848;6.748;2024-02-23T00:56:07;5.60;99.90
57058;DHT22;74999;52.848;6.748;2024-02-23T00:58:33;5.50;99.90
57058;DHT22;74999;52.848;6.748;2024-02-23T01:00:59;5.50;99.90
57058;DHT22;74999;52.848;6.748;2024-02-23T01:03:25;5.50;99.90
57058;DHT22;74999;52.848;6.748;2024-02-23T01:05:50;5.50;99.90
57058;DHT22;74999;52.848;6.748;2024-02-23T01:08:16;5.40;99.90
57058;DHT22;74999;52.848;6.748;2024-02-23T01:10:42;5.40;99.90
57058;DHT22;74999;52.848;6.748;2024-02-23T01:13:08;5.30;99.90
57058;DHT22;74999;52.848;6.748;2024-02-23T01:15:34;5.30;99.90
57058;DHT22;74999;52.848;6.748;2024-02-23T01:17:59;5.30;99.90
57058;DHT22;74999;52.848;6.748;2024-02-23T01:20:25;5.30;99.90
57058;DHT22;74999;52.848;6.748;2024-02-23T01:22:51;5.40;99.90
57058;DHT22;74999;52.848;6.748;2024-02-23T01:25:16;5.30;99.90
57058;DHT22;74999;52.848;6.748;2024-02-23T01:27:42;5.30;99.90
57058;DHT22;74999;52.848;6.748;2024-02-23T01:30:10;5.30;99.90
57058;DHT22;74999;52.848;6.748;2024-02-23T01:32:36;5.60;99.90
57058;DHT22;74999;52.848;6.748;2024-02-23T01:35:07;5.50;99.90
57058;DHT22;74999;52.848;6.748;2024-02-23T01:37:36;5.40;99.90
57058;DHT22;74999;52.848;6.748;2024-02-23T01:40:02;5.40;99.90
57058;DHT22;74999;52.848;6.748;2024-02-23T01:42:28;5.40;99.90
57058;DHT22;74999;52.848;6.748;2024-02-23T01:44:53;5.40;99.90
57058;DHT22;74999;52.848;6.748;2024-02-23T01:47:23;6.30;99.90
57058;DHT22;74999;52.848;6.748;2024-02-23T01:49:49;5.40;99.90
57058;DHT22;74999;52.848;6.748;2024-02-23T01:52:15;5.60;99.90
57058;DHT22;74999;52.848;6.748;2024-02-23T01:54:42;6.50;99.90
57058;DHT22;74999;52.848;6.748;2024-02-23T01:57:08;5.50;99.90
57058;DHT22;74999;52.848;6.748;2024-02-23T01:59:36;5.50;99.90
57058;DHT22;74999;52.848;6.748;2024-02-23T02:02:03;5.40;99.90
57058;DHT22;74999;52.848;6.748;2024-02-23T02:04:29;5.50;99.90
57058;DHT22;74999;52.848;6.748;2024-02-23T02:06:56;5.50;99.90
57058;DHT22;74999;52.848;6.748;2024-02-23T02:09:22;5.50;99.90
57058;DHT22;74999;52.848;6.748;2024-02-23T02:11:48;5.50;99.90
57058;DHT22;74999;52.848;6.748;2024-02-23T02:14:15;5.40;99.90
57058;DHT22;74999;52.848;6.748;2024-02-23T02:16:40;5.50;99.90
57058;DHT22;74999;52.848;6.748;2024-02-23T02:19:06;5.50;99.90
57058;DHT22;74999;52.848;6.748;2024-02-23T02:21:33;5.50;99.90
57058;DHT22;74999;52.848;6.748;2024-02-23T02:23:59;5.60;99.90
57058;DHT22;74999;52.848;6.748;2024-02-23T02:26:24;5.50;99.90
57058;DHT22;74999;52.848;6.748;2024-02-23T02:28:50;5.50;99.90
57058;DHT22;74999;52.848;6.748;2024-02-23T02:31:16;5.50;99.90
57058;DHT22;74999;52.848;6.748;2024-02-23T02:33:41;5.50;99.90
57058;DHT22;74999;52.848;6.748;2024-02-23T02:36:07;5.70;99.90
57058;DHT22;74999;52.848;6.748;2024-02-23T02:38:33;5.50;99.90
57058;DHT22;74999;52.848;6.748;2024-02-23T02:40:59;5.80;99.90
57058;DHT22;74999;52.848;6.748;2024-02-23T02:43:27;5.60;99.90
57058;DHT22;74999;52.848;6.748;2024-02-23T02:45:52;5.60;99.90
57058;DHT22;74999;52.848;6.748;2024-02-23T02:48:18;5.60;99.90
57058;DHT22;74999;52.848;6.748;2024-02-23T02:50:44;5.70;99.90
57058;DHT22;74999;52.848;6.748;2024-02-23T02:53:10;5.60;99.90
57058;DHT22;74999;52.848;6.748;2024-02-23T02:55:36;5.70;99.90
57058;DHT22;74999;52.848;6.748;2024-02-23T02:58:02;5.60;99.90
57058;DHT22;74999;52.848;6.748;2024-02-23T03:00:28;5.70;99.90
57058;DHT22;74999;52.848;6.748;2024-02-23T03:02:53;5.70;99.90
57058;DHT22;74999;52.848;6.748;2024-02-23T03:05:19;5.70;99.90
57058;DHT22;74999;52.848;6.748;2024-02-23T03:07:45;5.70;99.90
57058;DHT22;74999;52.848;6.748;2024-02-23T03:10:11;5.60;99.90
57058;DHT22;74999;52.848;6.748;2024-02-23T03:12:36;5.80;99.90
57058;DHT22;74999;52.848;6.748;2024-02-23T03:15:02;5.70;99.90
57058;DHT22;74999;52.848;6.748;2024-02-23T03:17:29;5.60;99.90
57058;DHT22;74999;52.848;6.748;2024-02-23T03:19:54;5.60;99.90
57058;DHT22;74999;52.848;6.748;2024-02-23T03:22:20;5.70;99.90
57058;DHT22;74999;52.848;6.748;2024-02-23T03:24:45;5.70;99.90
57058;DHT22;74999;52.848;6.748;2024-02-23T03:27:11;5.80;99.90
57058;DHT22;74999;52.848;6.748;2024-02-23T03:29:38;5.70;99.90
57058;DHT22;74999;52.848;6.748;2024-02-23T03:32:04;5.70;99.90
57058;DHT22;74999;52.848;6.748;2024-02-23T03:34:30;5.60;99.90
57058;DHT22;74999;52.848;6.748;2024-02-23T03:36:56;5.60;99.90
57058;DHT22;74999;52.848;6.748;2024-02-23T03:39:21;5.60;99.90
57058;DHT22;74999;52.848;6.748;2024-02-23T03:41:47;5.60;99.90
57058;DHT22;74999;52.848;6.748;2024-02-23T03:44:13;6.00;99.90
57058;DHT22;74999;52.848;6.748;2024-02-23T03:46:38;5.70;99.90
57058;DHT22;74999;52.848;6.748;2024-02-23T03:49:04;5.80;99.90
57058;DHT22;74999;52.848;6.748;2024-02-23T03:51:30;5.60;99.90
57058;DHT22;74999;52.848;6.748;2024-02-23T03:53:55;5.60;99.90
57058;DHT22;74999;52.848;6.748;2024-02-23T03:56:21;6.00;99.90
57058;DHT22;74999;52.848;6.748;2024-02-23T03:58:47;5.60;99.90
57058;DHT22;74999;52.848;6.748;2024-02-23T04:01:12;5.60;99.90
57058;DHT22;74999;52.848;6.748;2024-02-23T04:03:38;6.70;99.90
57058;DHT22;74999;52.848;6.748;2024-02-23T04:06:04;5.90;99.90
57058;DHT22;74999;52.848;6.748;2024-02-23T04:08:29;5.50;99.90
57058;DHT22;74999;52.848;6.748;2024-02-23T04:10:55;5.40;99.90
57058;DHT22;74999;52.848;6.748;2024-02-23T04:13:21;5.40;99.90
57058;DHT22;74999;52.848;6.748;2024-02-23T04:15:46;5.40;99.90
57058;DHT22;74999;52.848;6.748;2024-02-23T04:18:12;5.40;99.90
57058;DHT22;74999;52.848;6.748;2024-02-23T04:20:38;5.30;99.90
57058;DHT22;74999;52.848;6.748;2024-02-23T04:23:03;5.30;99.90
57058;DHT22;74999;52.848;6.748;2024-02-23T04:25:29;5.30;99.90
57058;DHT22;74999;52.848;6.748;2024-02-23T04:27:55;5.30;99.90
57058;DHT22;74999;52.848;6.748;2024-02-23T04:30:20;5.30;99.90
57058;DHT22;74999;52.848;6.748;2024-02-23T04:32:46;5.30;99.90
57058;DHT22;74999;52.848;6.748;2024-02-23T04:35:11;5.20;99.90
57058;DHT22;74999;52.848;6.748;2024-02-23T04:37:37;5.20;99.90
57058;DHT22;74999;52.848;6.748;2024-02-23T04:40:04;5.20;99.90
57058;DHT22;74999;52.848;6.748;2024-02-23T04:42:31;5.30;99.90
57058;DHT22;74999;52.848;6.748;2024-02-23T04:44:56;5.20;99.90
57058;DHT22;74999;52.848;6.748;2024-02-23T04:47:22;6.20;99.90
57058;DHT22;74999;52.848;6.748;2024-02-23T04:49:47;5.40;99.90
57058;DHT22;74999;52.848;6.748;2024-02-23T04:52:14;5.80;99.90
57058;DHT22;74999;52.848;6.748;2024-02-23T04:54:40;5.30;99.90
57058;DHT22;74999;52.848;6.748;2024-02-23T04:57:06;6.00;99.90
57058;DHT22;74999;52.848;6.748;2024-02-23T04:59:31;5.30;99.90
57058;DHT22;74999;52.848;6.748;2024-02-23T05:01:58;5.30;99.90
57058;DHT22;74999;52.848;6.748;2024-02-23T05:04:24;5.40;99.90
57058;DHT22;74999;52.848;6.748;2024-02-23T05:06:52;5.40;99.90
57058;DHT22;74999;52.848;6.748;2024-02-23T05:09:18;6.40;99.90
57058;DHT22;74999;52.848;6.748;2024-02-23T05:11:43;5.40;99.90
57058;DHT22;74999;52.848;6.748;2024-02-23T05:14:11;5.40;99.90
57058;DHT22;74999;52.848;6.748;2024-02-23T05:16:37;5.40;99.90
57058;DHT22;74999;52.848;6.748;2024-02-23T05:19:02;6.30;99.90
57058;DHT22;74999;52.848;6.748;2024-02-23T05:21:28;5.40;99.90
57058;DHT22;74999;52.848;6.748;2024-02-23T05:23:54;5.50;99.90
57058;DHT22;74999;52.848;6.748;2024-02-23T05:26:19;5.50;99.90
57058;DHT22;74999;52.848;6.748;2024-02-23T05:28:45;5.60;99.90
57058;DHT22;74999;52.848;6.748;2024-02-23T05:31:11;5.60;99.90
57058;DHT22;74999;52.848;6.748;2024-02-23T05:33:37;5.70;99.90
57058;DHT22;74999;52.848;6.748;2024-02-23T05:36:04;5.50;99.90
57058;DHT22;74999;52.848;6.748;2024-02-23T05:38:30;5.50;99.90
57058;DHT22;74999;52.848;6.748;2024-02-23T05:40:56;5.60;99.90
57058;DHT22;74999;52.848;6.748;2024-02-23T05:43:22;5.50;99.90
57058;DHT22;74999;52.848;6.748;2024-02-23T05:45:48;5.60;99.90
57058;DHT22;74999;52.848;6.748;2024-02-23T05:48:13;5.50;99.90
57058;DHT22;74999;52.848;6.748;2024-02-23T05:50:39;5.60;99.90
57058;DHT22;74999;52.848;6.748;2024-02-23T05:53:04;6.20;99.90
57058;DHT22;74999;52.848;6.748;2024-02-23T05:55:30;5.70;99.90
57058;DHT22;74999;52.848;6.748;2024-02-23T05:57:56;5.50;99.90
57058;DHT22;74999;52.848;6.748;2024-02-23T06:00:22;5.50;99.90
57058;DHT22;74999;52.848;6.748;2024-02-23T06:02:48;5.90;99.90
57058;DHT22;74999;52.848;6.748;2024-02-23T06:05:13;5.70;99.90
57058;DHT22;74999;52.848;6.748;2024-02-23T06:07:40;5.70;99.90
57058;DHT22;74999;52.848;6.748;2024-02-23T06:10:07;5.40;99.90
57058;DHT22;74999;52.848;6.748;2024-02-23T06:12:32;5.60;99.90
57058;DHT22;74999;52.848;6.748;2024-02-23T06:14:58;5.40;99.90
57058;DHT22;74999;52.848;6.748;2024-02-23T06:17:24;5.40;99.90
57058;DHT22;74999;52.848;6.748;2024-02-23T06:19:50;5.50;99.90
57058;DHT22;74999;52.848;6.748;2024-02-23T06:22:18;5.30;99.90
57058;DHT22;74999;52.848;6.748;2024-02-23T06:24:47;5.40;99.90
57058;DHT22;74999;52.848;6.748;2024-02-23T06:27:12;5.70;99.90
57058;DHT22;74999;52.848;6.748;2024-02-23T06:29:38;6.20;99.90
57058;DHT22;74999;52.848;6.748;2024-02-23T06:32:04;5.30;99.90
57058;DHT22;74999;52.848;6.748;2024-02-23T06:34:30;5.40;99.90
57058;DHT22;74999;52.848;6.748;2024-02-23T06:36:56;5.60;99.90
57058;DHT22;74999;52.848;6.748;2024-02-23T06:39:21;5.40;99.90
57058;DHT22;74999;52.848;6.748;2024-02-23T06:41:47;5.40;99.90
57058;DHT22;74999;52.848;6.748;2024-02-23T06:44:12;6.20;99.90
57058;DHT22;74999;52.848;6.748;2024-02-23T06:46:38;5.40;99.90
57058;DHT22;74999;52.848;6.748;2024-02-23T06:49:04;5.40;99.90
57058;DHT22;74999;52.848;6.748;2024-02-23T06:51:31;5.40;99.90
57058;DHT22;74999;52.848;6.748;2024-02-23T06:53:57;5.40;99.90
57058;DHT22;74999;52.848;6.748;2024-02-23T06:56:23;5.40;99.90
57058;DHT22;74999;52.848;6.748;2024-02-23T06:58:49;5.50;99.90
57058;DHT22;74999;52.848;6.748;2024-02-23T07:01:14;5.40;99.90
57058;DHT22;74999;52.848;6.748;2024-02-23T07:03:40;5.40;99.90
57058;DHT22;74999;52.848;6.748;2024-02-23T07:06:09;5.50;99.90
57058;DHT22;74999;52.848;6.748;2024-02-23T07:08:36;5.60;99.90
57058;DHT22;74999;52.848;6.748;2024-02-23T07:11:02;5.50;99.90
57058;DHT22;74999;52.848;6.748;2024-02-23T07:13:27;5.50;99.90
57058;DHT22;74999;52.848;6.748;2024-02-23T07:15:53;5.60;99.90
57058;DHT22;74999;52.848;6.748;2024-02-23T07:18:21;5.60;99.90
57058;DHT22;74999;52.848;6.748;2024-02-23T07:20:47;5.60;99.90
57058;DHT22;74999;52.848;6.748;2024-02-23T07:23:12;5.70;99.90
57058;DHT22;74999;52.848;6.748;2024-02-23T07:25:38;5.90;99.90
57058;DHT22;74999;52.848;6.748;2024-02-23T07:28:04;5.90;99.90
57058;DHT22;74999;52.848;6.748;2024-02-23T07:30:30;5.70;99.90
57058;DHT22;74999;52.848;6.748;2024-02-23T07:32:55;5.80;99.90
57058;DHT22;74999;52.848;6.748;2024-02-23T07:35:21;6.00;99.90
57058;DHT22;74999;52.848;6.748;2024-02-23T07:37:47;5.80;99.90
57058;DHT22;74999;52.848;6.748;2024-02-23T07:40:12;5.80;99.90
57058;DHT22;74999;52.848;6.748;2024-02-23T07:42:38;5.90;99.90
57058;DHT22;74999;52.848;6.748;2024-02-23T07:45:05;5.90;99.90
57058;DHT22;74999;52.848;6.748;2024-02-23T07:47:31;5.90;99.90
57058;DHT22;74999;52.848;6.748;2024-02-23T07:49:58;5.80;99.90
57058;DHT22;74999;52.848;6.748;2024-02-23T07:52:24;5.90;99.90
57058;DHT22;74999;52.848;6.748;2024-02-23T07:54:51;5.80;99.90
57058;DHT22;74999;52.848;6.748;2024-02-23T07:57:18;5.90;99.90
57058;DHT22;74999;52.848;6.748;2024-02-23T07:59:44;5.90;99.90
57058;DHT22;74999;52.848;6.748;2024-02-23T08:02:09;5.90;99.90
57058;DHT22;74999;52.848;6.748;2024-02-23T08:04:35;6.50;99.90
57058;DHT22;74999;52.848;6.748;2024-02-23T08:07:01;5.90;99.90
57058;DHT22;74999;52.848;6.748;2024-02-23T08:09:27;5.90;99.90
57058;DHT22;74999;52.848;6.748;2024-02-23T08:11:52;5.90;99.90
57058;DHT22;74999;52.848;6.748;2024-02-23T08:14:18;5.90;99.90
57058;DHT22;74999;52.848;6.748;2024-02-23T08:16:43;6.10;99.90
57058;DHT22;74999;52.848;6.748;2024-02-23T08:19:09;5.90;99.90
57058;DHT22;74999;52.848;6.748;2024-02-23T08:21:35;6.10;99.90
57058;DHT22;74999;52.848;6.748;2024-02-23T08:24:01;5.90;99.90
57058;DHT22;74999;52.848;6.748;2024-02-23T08:26:28;6.00;99.90
57058;DHT22;74999;52.848;6.748;2024-02-23T08:28:53;6.20;99.90
57058;DHT22;74999;52.848;6.748;2024-02-23T08:31:19;6.50;99.90
57058;DHT22;74999;52.848;6.748;2024-02-23T08:33:45;6.10;99.90
57058;DHT22;74999;52.848;6.748;2024-02-23T08:36:10;6.10;99.90
57058;DHT22;74999;52.848;6.748;2024-02-23T08:38:36;6.30;99.90
57058;DHT22;74999;52.848;6.748;2024-02-23T08:41:03;6.20;99.90
57058;DHT22;74999;52.848;6.748;2024-02-23T08:43:28;6.30;99.90
57058;DHT22;74999;52.848;6.748;2024-02-23T08:45:54;6.60;99.90
57058;DHT22;74999;52.848;6.748;2024-02-23T08:48:20;6.60;99.90
57058;DHT22;74999;52.848;6.748;2024-02-23T08:50:45;6.60;99.90
57058;DHT22;74999;52.848;6.748;2024-02-23T08:53:11;6.90;99.90
57058;DHT22;74999;52.848;6.748;2024-02-23T08:55:36;6.70;99.90
57058;DHT22;74999;52.848;6.748;2024-02-23T08:58:02;6.70;99.90
57058;DHT22;74999;52.848;6.748;2024-02-23T09:00:28;6.70;99.90
57058;DHT22;74999;52.848;6.748;2024-02-23T09:02:54;6.70;99.90
57058;DHT22;74999;52.848;6.748;2024-02-23T09:05:19;6.70;99.90
57058;DHT22;74999;52.848;6.748;2024-02-23T09:07:46;7.30;99.90
57058;DHT22;74999;52.848;6.748;2024-02-23T09:10:12;6.80;99.90
57058;DHT22;74999;52.848;6.748;2024-02-23T09:12:37;7.00;99.90
57058;DHT22;74999;52.848;6.748;2024-02-23T09:15:04;7.20;99.90
57058;DHT22;74999;52.848;6.748;2024-02-23T09:17:30;6.90;99.90
57058;DHT22;74999;52.848;6.748;2024-02-23T09:19:56;7.20;99.90
57058;DHT22;74999;52.848;6.748;2024-02-23T09:22:22;7.20;99.90
57058;DHT22;74999;52.848;6.748;2024-02-23T09:24:48;7.30;99.90
57058;DHT22;74999;52.848;6.748;2024-02-23T09:27:13;7.40;99.90
57058;DHT22;74999;52.848;6.748;2024-02-23T09:29:41;7.50;99.90
57058;DHT22;74999;52.848;6.748;2024-02-23T09:32:07;7.60;99.90
57058;DHT22;74999;52.848;6.748;2024-02-23T09:34:33;8.20;99.90
57058;DHT22;74999;52.848;6.748;2024-02-23T09:36:59;7.60;99.90
57058;DHT22;74999;52.848;6.748;2024-02-23T09:39:24;7.50;99.90
57058;DHT22;74999;52.848;6.748;2024-02-23T09:41:54;7.50;99.90
57058;DHT22;74999;52.848;6.748;2024-02-23T09:44:20;7.40;99.90
57058;DHT22;74999;52.848;6.748;2024-02-23T09:46:48;7.40;99.90
57058;DHT22;74999;52.848;6.748;2024-02-23T09:49:15;7.90;99.90
57058;DHT22;74999;52.848;6.748;2024-02-23T09:51:43;7.40;99.90
57058;DHT22;74999;52.848;6.748;2024-02-23T09:54:09;7.50;99.90
57058;DHT22;74999;52.848;6.748;2024-02-23T09:56:35;8.30;99.90
57058;DHT22;74999;52.848;6.748;2024-02-23T09:59:03;7.50;99.90
57058;DHT22;74999;52.848;6.748;2024-02-23T10:01:31;8.50;99.90
57058;DHT22;74999;52.848;6.748;2024-02-23T10:03:59;7.50;99.90
57058;DHT22;74999;52.848;6.748;2024-02-23T10:06:25;7.50;99.90
57058;DHT22;74999;52.848;6.748;2024-02-23T10:08:51;7.70;99.90
57058;DHT22;74999;52.848;6.748;2024-02-23T10:11:23;7.80;99.90
57058;DHT22;74999;52.848;6.748;2024-02-23T10:13:50;7.50;99.90
57058;DHT22;74999;52.848;6.748;2024-02-23T10:16:16;8.60;99.90
57058;DHT22;74999;52.848;6.748;2024-02-23T10:18:42;7.40;99.90
57058;DHT22;74999;52.848;6.748;2024-02-23T10:21:08;7.40;99.90
57058;DHT22;74999;52.848;6.748;2024-02-23T10:23:34;8.40;99.90
57058;DHT22;74999;52.848;6.748;2024-02-23T10:26:00;7.40;99.90
57058;DHT22;74999;52.848;6.748;2024-02-23T10:28:27;7.40;99.90
57058;DHT22;74999;52.848;6.748;2024-02-23T10:30:53;8.10;99.90
57058;DHT22;74999;52.848;6.748;2024-02-23T10:33:22;7.70;99.90
57058;DHT22;74999;52.848;6.748;2024-02-23T10:35:55;7.50;99.90
57058;DHT22;74999;52.848;6.748;2024-02-23T10:38:23;7.50;99.90
57058;DHT22;74999;52.848;6.748;2024-02-23T10:40:50;7.30;99.90
57058;DHT22;74999;52.848;6.748;2024-02-23T10:43:19;7.90;99.90
57058;DHT22;74999;52.848;6.748;2024-02-23T10:45:46;7.70;99.90
57058;DHT22;74999;52.848;6.748;2024-02-23T10:48:14;7.70;99.90
57058;DHT22;74999;52.848;6.748;2024-02-23T10:50:41;8.50;99.90
57058;DHT22;74999;52.848;6.748;2024-02-23T10:53:10;7.50;99.90
57058;DHT22;74999;52.848;6.748;2024-02-23T10:55:37;7.40;99.90
57058;DHT22;74999;52.848;6.748;2024-02-23T10:58:09;7.40;99.90
57058;DHT22;74999;52.848;6.748;2024-02-23T11:00:37;7.50;99.90
57058;DHT22;74999;52.848;6.748;2024-02-23T11:03:04;7.60;99.90
57058;DHT22;74999;52.848;6.748;2024-02-23T11:05:33;8.30;99.90
57058;DHT22;74999;52.848;6.748;2024-02-23T11:07:59;7.50;99.90
57058;DHT22;74999;52.848;6.748;2024-02-23T11:10:24;7.90;99.90
57058;DHT22;74999;52.848;6.748;2024-02-23T11:13:00;7.70;99.90
57058;DHT22;74999;52.848;6.748;2024-02-23T11:15:26;7.40;99.90
57058;DHT22;74999;52.848;6.748;2024-02-23T11:17:52;7.70;99.90
57058;DHT22;74999;52.848;6.748;2024-02-23T11:20:18;7.50;99.90
57058;DHT22;74999;52.848;6.748;2024-02-23T11:22:51;7.50;99.90
57058;DHT22;74999;52.848;6.748;2024-02-23T11:25:18;8.80;99.90
57058;DHT22;74999;52.848;6.748;2024-02-23T11:27:44;7.40;99.90
57058;DHT22;74999;52.848;6.748;2024-02-23T11:30:16;8.50;99.90
57058;DHT22;74999;52.848;6.748;2024-02-23T11:32:47;7.50;99.90
57058;DHT22;74999;52.848;6.748;2024-02-23T11:35:15;8.30;99.90
57058;DHT22;74999;52.848;6.748;2024-02-23T11:37:48;7.40;99.90
57058;DHT22;74999;52.848;6.748;2024-02-23T11:40:14;7.40;99.90
57058;DHT22;74999;52.848;6.748;2024-02-23T11:42:43;7.40;99.90
57058;DHT22;74999;52.848;6.748;2024-02-23T11:45:10;8.50;99.90
57058;DHT22;74999;52.848;6.748;2024-02-23T11:47:39;7.30;99.90
57058;DHT22;74999;52.848;6.748;2024-02-23T11:50:11;7.50;99.90
57058;DHT22;74999;52.848;6.748;2024-02-23T11:52:37;7.50;99.90
57058;DHT22;74999;52.848;6.748;2024-02-23T11:55:04;7.30;99.90
57058;DHT22;74999;52.848;6.748;2024-02-23T12:01:53;7.30;99.90
57058;DHT22;74999;52.848;6.748;2024-02-23T12:04:45;7.20;99.90
57058;DHT22;74999;52.848;6.748;2024-02-23T12:07:11;7.20;99.90
57058;DHT22;74999;52.848;6.748;2024-02-23T12:09:37;8.20;99.90
57058;DHT22;74999;52.848;6.748;2024-02-23T12:12:06;7.60;99.90
57058;DHT22;74999;52.848;6.748;2024-02-23T12:14:34;7.20;99.90
57058;DHT22;74999;52.848;6.748;2024-02-23T12:17:02;7.20;99.90
57058;DHT22;74999;52.848;6.748;2024-02-23T12:19:29;8.00;99.90
57058;DHT22;74999;52.848;6.748;2024-02-23T12:22:00;7.10;99.90
57058;DHT22;74999;52.848;6.748;2024-02-23T12:24:26;7.00;99.90
57058;DHT22;74999;52.848;6.748;2024-02-23T12:26:56;7.10;99.90
57058;DHT22;74999;52.848;6.748;2024-02-23T12:29:23;7.10;99.90
57058;DHT22;74999;52.848;6.748;2024-02-23T12:31:49;7.20;99.90
57058;DHT22;74999;52.848;6.748;2024-02-23T12:34:14;7.10;99.90
57058;DHT22;74999;52.848;6.748;2024-02-23T12:36:40;7.10;99.90
57058;DHT22;74999;52.848;6.748;2024-02-23T12:39:06;8.00;99.90
57058;DHT22;74999;52.848;6.748;2024-02-23T12:41:32;7.00;99.90
57058;DHT22;74999;52.848;6.748;2024-02-23T12:43:58;7.00;99.90
57058;DHT22;74999;52.848;6.748;2024-02-23T12:46:24;7.00;99.90
57058;DHT22;74999;52.848;6.748;2024-02-23T12:48:50;7.70;99.90
57058;DHT22;74999;52.848;6.748;2024-02-23T12:51:16;7.60;99.90
57058;DHT22;74999;52.848;6.748;2024-02-23T12:53:42;7.10;99.90
57058;DHT22;74999;52.848;6.748;2024-02-23T12:56:12;7.00;99.90
57058;DHT22;74999;52.848;6.748;2024-02-23T12:58:40;7.20;99.90
57058;DHT22;74999;52.848;6.748;2024-02-23T13:01:07;7.50;99.90
57058;DHT22;74999;52.848;6.748;2024-02-23T13:03:37;7.90;99.90
57058;DHT22;74999;52.848;6.748;2024-02-23T13:06:04;7.10;99.90
57058;DHT22;74999;52.848;6.748;2024-02-23T13:08:30;7.00;99.90
57058;DHT22;74999;52.848;6.748;2024-02-23T13:10:57;7.60;99.90
57058;DHT22;74999;52.848;6.748;2024-02-23T13:13:23;7.10;99.90
57058;DHT22;74999;52.848;6.748;2024-02-23T13:15:50;7.40;99.90
57058;DHT22;74999;52.848;6.748;2024-02-23T13:18:16;8.30;99.90
57058;DHT22;74999;52.848;6.748;2024-02-23T13:20:42;7.10;99.90
57058;DHT22;74999;52.848;6.748;2024-02-23T13:23:09;7.10;99.90
57058;DHT22;74999;52.848;6.748;2024-02-23T13:25:39;7.40;99.90
57058;DHT22;74999;52.848;6.748;2024-02-23T13:28:05;7.10;99.90
57058;DHT22;74999;52.848;6.748;2024-02-23T13:30:35;7.20;99.90
57058;DHT22;74999;52.848;6.748;2024-02-23T13:33:01;7.20;99.90
57058;DHT22;74999;52.848;6.748;2024-02-23T13:35:26;7.70;99.90
57058;DHT22;74999;52.848;6.748;2024-02-23T13:37:53;7.20;99.90
57058;DHT22;74999;52.848;6.748;2024-02-23T13:40:18;7.30;99.90
57058;DHT22;74999;52.848;6.748;2024-02-23T13:42:44;7.50;99.90
57058;DHT22;74999;52.848;6.748;2024-02-23T13:45:18;7.20;99.90
57058;DHT22;74999;52.848;6.748;2024-02-23T13:47:59;7.30;99.90
57058;DHT22;74999;52.848;6.748;2024-02-23T13:50:25;7.20;99.90
57058;DHT22;74999;52.848;6.748;2024-02-23T13:52:51;7.50;99.90
57058;DHT22;74999;52.848;6.748;2024-02-23T13:55:17;7.40;99.90
57058;DHT22;74999;52.848;6.748;2024-02-23T13:57:43;7.60;99.90
57058;DHT22;74999;52.848;6.748;2024-02-23T14:00:09;7.30;99.90
57058;DHT22;74999;52.848;6.748;2024-02-23T14:02:38;7.30;99.90
57058;DHT22;74999;52.848;6.748;2024-02-23T14:05:06;7.70;99.90
57058;DHT22;74999;52.848;6.748;2024-02-23T14:07:35;7.30;99.90
57058;DHT22;74999;52.848;6.748;2024-02-23T14:10:01;7.20;99.90
57058;DHT22;74999;52.848;6.748;2024-02-23T14:12:28;7.20;99.90
57058;DHT22;74999;52.848;6.748;2024-02-23T14:14:54;7.40;99.90
57058;DHT22;74999;52.848;6.748;2024-02-23T14:17:20;7.30;99.90
57058;DHT22;74999;52.848;6.748;2024-02-23T14:19:45;7.30;99.90
57058;DHT22;74999;52.848;6.748;2024-02-23T14:22:11;8.60;99.90
57058;DHT22;74999;52.848;6.748;2024-02-23T14:24:37;7.30;99.90
57058;DHT22;74999;52.848;6.748;2024-02-23T14:27:03;7.30;99.90
57058;DHT22;74999;52.848;6.748;2024-02-23T14:29:29;7.40;99.90
57058;DHT22;74999;52.848;6.748;2024-02-23T14:31:54;7.50;99.90
57058;DHT22;74999;52.848;6.748;2024-02-23T14:34:20;7.50;99.90
57058;DHT22;74999;52.848;6.748;2024-02-23T14:36:49;7.50;99.90
57058;DHT22;74999;52.848;6.748;2024-02-23T14:39:15;8.20;99.90
57058;DHT22;74999;52.848;6.748;2024-02-23T14:41:41;8.00;99.90
57058;DHT22;74999;52.848;6.748;2024-02-23T14:44:06;7.40;99.90
57058;DHT22;74999;52.848;6.748;2024-02-23T14:46:32;7.40;99.90
57058;DHT22;74999;52.848;6.748;2024-02-23T14:48:58;7.30;99.90
57058;DHT22;74999;52.848;6.748;2024-02-23T14:51:23;7.40;99.90
57058;DHT22;74999;52.848;6.748;2024-02-23T14:53:49;7.40;99.90
57058;DHT22;74999;52.848;6.748;2024-02-23T14:56:14;7.50;99.90
57058;DHT22;74999;52.848;6.748;2024-02-23T14:58:40;7.50;99.90
57058;DHT22;74999;52.848;6.748;2024-02-23T15:01:07;7.90;99.90
57058;DHT22;74999;52.848;6.748;2024-02-23T15:03:33;7.50;99.90
57058;DHT22;74999;52.848;6.748;2024-02-23T15:05:59;7.50;99.90
57058;DHT22;74999;52.848;6.748;2024-02-23T15:08:26;8.10;99.90
57058;DHT22;74999;52.848;6.748;2024-02-23T15:10:52;7.50;99.90
57058;DHT22;74999;52.848;6.748;2024-02-23T15:13:19;7.50;99.90
57058;DHT22;74999;52.848;6.748;2024-02-23T15:15:44;7.60;99.90
57058;DHT22;74999;52.848;6.748;2024-02-23T15:18:10;7.50;99.90
57058;DHT22;74999;52.848;6.748;2024-02-23T15:20:36;8.20;99.90
57058;DHT22;74999;52.848;6.748;2024-02-23T15:23:02;8.10;99.90
57058;DHT22;74999;52.848;6.748;2024-02-23T15:25:28;7.50;99.90
57058;DHT22;74999;52.848;6.748;2024-02-23T15:27:53;7.60;99.90
57058;DHT22;74999;52.848;6.748;2024-02-23T15:30:24;7.50;99.90
57058;DHT22;74999;52.848;6.748;2024-02-23T15:32:50;7.50;99.90
57058;DHT22;74999;52.848;6.748;2024-02-23T15:35:15;7.60;99.90
57058;DHT22;74999;52.848;6.748;2024-02-23T15:37:41;7.70;99.90
57058;DHT22;74999;52.848;6.748;2024-02-23T15:40:07;7.60;99.90
57058;DHT22;74999;52.848;6.748;2024-02-23T15:42:33;7.60;99.90
57058;DHT22;74999;52.848;6.748;2024-02-23T15:45:04;7.50;99.90